KIPT

Williamsport Regional Airport

Williamsport, Pennsylvania, USA
METAR KIPT 190554Z AUTO 00000KT 9SM CLR M11/M12 A3002 RMK AO2 SLP175 T11061122 11050 21106 58016
Observed Flight Rules
Jan-19 @ 05:54 UTC (an hour ago) Visual Flight Rules
Wind Visibility Clouds
Calm 9 miles
  • Clear skies
Temperatures Readings
Current -11°C / 12°F
Dewpoint -12°C / 10°F
Humidity 92%
Altimeter 30.02" Hg
Pressure 1017.5 hPa
Elevation 164
METAR KIPT 190554Z AUTO 00000KT 9SM CLR M11/M12 A3002 RMK AO2 SLP175 T11061122 11050 21106 58016
Observed Flight Rules
Jan-19 @ 05:54 UTC
(an hour ago)
VFR
Wind Visibility
Calm 9 miles
Clouds
  • Clear skies
Temperature Dewpoint
-11°C / 12°F -12°C / 10°F
Humidity Altimeter Pressure
92% 30.02" Hg 1017.5 hPa